sensor_id;sensor_type;location;lat;lon;timestamp;P1;durP1;ratioP1;P2;durP2;ratioP2
53269;SDS011;39159;45.634;9.420;2023-04-06T00:00:48;13.88;;;8.43;;
53269;SDS011;39159;45.634;9.420;2023-04-06T00:03:14;11.93;;;7.88;;
53269;SDS011;39159;45.634;9.420;2023-04-06T00:05:40;12.35;;;7.95;;
53269;SDS011;39159;45.634;9.420;2023-04-06T00:08:06;12.82;;;8.38;;
53269;SDS011;39159;45.634;9.420;2023-04-06T00:10:31;14.10;;;8.43;;
53269;SDS011;39159;45.634;9.420;2023-04-06T00:12:57;13.27;;;7.53;;
53269;SDS011;39159;45.634;9.420;2023-04-06T00:15:24;12.13;;;7.95;;
53269;SDS011;39159;45.634;9.420;2023-04-06T00:17:50;15.60;;;8.38;;
53269;SDS011;39159;45.634;9.420;2023-04-06T00:20:15;17.08;;;8.45;;
53269;SDS011;39159;45.634;9.420;2023-04-06T00:22:41;16.25;;;8.23;;
53269;SDS011;39159;45.634;9.420;2023-04-06T00:25:08;15.77;;;8.30;;
53269;SDS011;39159;45.634;9.420;2023-04-06T00:27:35;11.77;;;7.63;;
53269;SDS011;39159;45.634;9.420;2023-04-06T00:30:01;12.93;;;7.95;;
53269;SDS011;39159;45.634;9.420;2023-04-06T00:32:28;13.90;;;7.80;;
53269;SDS011;39159;45.634;9.420;2023-04-06T00:34:53;12.52;;;7.88;;
53269;SDS011;39159;45.634;9.420;2023-04-06T00:37:19;17.85;;;8.15;;
53269;SDS011;39159;45.634;9.420;2023-04-06T00:39:44;11.90;;;8.32;;
53269;SDS011;39159;45.634;9.420;2023-04-06T00:42:13;15.98;;;8.65;;
53269;SDS011;39159;45.634;9.420;2023-04-06T00:44:41;12.25;;;8.55;;
53269;SDS011;39159;45.634;9.420;2023-04-06T00:47:07;14.45;;;8.60;;
53269;SDS011;39159;45.634;9.420;2023-04-06T00:49:33;17.35;;;9.32;;
53269;SDS011;39159;45.634;9.420;2023-04-06T00:51:59;13.02;;;8.82;;
53269;SDS011;39159;45.634;9.420;2023-04-06T00:54:25;17.08;;;9.02;;
53269;SDS011;39159;45.634;9.420;2023-04-06T00:56:50;16.38;;;8.40;;
53269;SDS011;39159;45.634;9.420;2023-04-06T00:59:16;14.88;;;8.38;;
53269;SDS011;39159;45.634;9.420;2023-04-06T01:01:42;16.33;;;7.70;;
53269;SDS011;39159;45.634;9.420;2023-04-06T01:04:07;13.85;;;7.95;;
53269;SDS011;39159;45.634;9.420;2023-04-06T01:06:33;13.73;;;7.60;;
53269;SDS011;39159;45.634;9.420;2023-04-06T01:08:59;16.10;;;7.82;;
53269;SDS011;39159;45.634;9.420;2023-04-06T01:11:25;14.23;;;8.85;;
53269;SDS011;39159;45.634;9.420;2023-04-06T01:13:51;13.15;;;8.20;;
53269;SDS011;39159;45.634;9.420;2023-04-06T01:16:17;13.05;;;8.40;;
53269;SDS011;39159;45.634;9.420;2023-04-06T01:18:42;13.73;;;7.50;;
53269;SDS011;39159;45.634;9.420;2023-04-06T01:21:08;11.18;;;7.95;;
53269;SDS011;39159;45.634;9.420;2023-04-06T01:23:35;12.50;;;7.45;;
53269;SDS011;39159;45.634;9.420;2023-04-06T01:26:00;13.18;;;7.95;;
53269;SDS011;39159;45.634;9.420;2023-04-06T01:28:26;13.68;;;7.95;;
53269;SDS011;39159;45.634;9.420;2023-04-06T01:30:51;19.55;;;8.27;;
53269;SDS011;39159;45.634;9.420;2023-04-06T01:33:17;15.45;;;8.73;;
53269;SDS011;39159;45.634;9.420;2023-04-06T01:35:42;14.18;;;8.25;;
53269;SDS011;39159;45.634;9.420;2023-04-06T01:38:08;12.65;;;7.95;;
53269;SDS011;39159;45.634;9.420;2023-04-06T01:40:33;13.07;;;7.57;;
53269;SDS011;39159;45.634;9.420;2023-04-06T01:42:58;14.32;;;7.68;;
53269;SDS011;39159;45.634;9.420;2023-04-06T01:45:24;11.55;;;6.95;;
53269;SDS011;39159;45.634;9.420;2023-04-06T01:47:50;13.55;;;7.57;;
53269;SDS011;39159;45.634;9.420;2023-04-06T01:50:15;14.95;;;7.82;;
53269;SDS011;39159;45.634;9.420;2023-04-06T01:52:41;11.98;;;6.93;;
53269;SDS011;39159;45.634;9.420;2023-04-06T01:55:06;13.38;;;7.25;;
53269;SDS011;39159;45.634;9.420;2023-04-06T01:57:32;12.07;;;6.97;;
53269;SDS011;39159;45.634;9.420;2023-04-06T01:59:58;13.27;;;7.15;;
53269;SDS011;39159;45.634;9.420;2023-04-06T02:02:23;12.13;;;7.32;;
53269;SDS011;39159;45.634;9.420;2023-04-06T02:04:49;14.00;;;7.07;;
53269;SDS011;39159;45.634;9.420;2023-04-06T02:07:14;11.98;;;7.05;;
53269;SDS011;39159;45.634;9.420;2023-04-06T02:09:40;12.15;;;6.97;;
53269;SDS011;39159;45.634;9.420;2023-04-06T02:12:05;12.10;;;7.43;;
53269;SDS011;39159;45.634;9.420;2023-04-06T02:14:31;10.07;;;6.53;;
53269;SDS011;39159;45.634;9.420;2023-04-06T02:16:58;13.52;;;6.63;;
53269;SDS011;39159;45.634;9.420;2023-04-06T02:19:23;19.20;;;7.05;;
53269;SDS011;39159;45.634;9.420;2023-04-06T02:21:48;15.10;;;7.03;;
53269;SDS011;39159;45.634;9.420;2023-04-06T02:24:14;13.27;;;7.20;;
53269;SDS011;39159;45.634;9.420;2023-04-06T02:26:40;12.63;;;6.20;;
53269;SDS011;39159;45.634;9.420;2023-04-06T02:29:05;11.35;;;6.60;;
53269;SDS011;39159;45.634;9.420;2023-04-06T02:31:32;17.23;;;6.82;;
53269;SDS011;39159;45.634;9.420;2023-04-06T02:33:57;15.70;;;7.35;;
53269;SDS011;39159;45.634;9.420;2023-04-06T02:36:22;16.75;;;7.28;;
53269;SDS011;39159;45.634;9.420;2023-04-06T02:38:48;15.32;;;7.38;;
53269;SDS011;39159;45.634;9.420;2023-04-06T02:41:13;13.07;;;7.47;;
53269;SDS011;39159;45.634;9.420;2023-04-06T02:43:39;14.98;;;8.25;;
53269;SDS011;39159;45.634;9.420;2023-04-06T02:46:05;12.82;;;7.97;;
53269;SDS011;39159;45.634;9.420;2023-04-06T02:48:30;15.77;;;8.13;;
53269;SDS011;39159;45.634;9.420;2023-04-06T02:50:56;14.25;;;7.25;;
53269;SDS011;39159;45.634;9.420;2023-04-06T02:53:21;14.38;;;7.80;;
53269;SDS011;39159;45.634;9.420;2023-04-06T02:55:46;16.85;;;8.18;;
53269;SDS011;39159;45.634;9.420;2023-04-06T02:58:12;13.77;;;7.72;;
53269;SDS011;39159;45.634;9.420;2023-04-06T03:00:37;13.77;;;6.57;;
53269;SDS011;39159;45.634;9.420;2023-04-06T03:03:03;13.65;;;7.43;;
53269;SDS011;39159;45.634;9.420;2023-04-06T03:05:28;11.10;;;6.38;;
53269;SDS011;39159;45.634;9.420;2023-04-06T03:07:54;11.23;;;6.47;;
53269;SDS011;39159;45.634;9.420;2023-04-06T03:10:19;11.95;;;6.90;;
53269;SDS011;39159;45.634;9.420;2023-04-06T03:12:45;10.57;;;6.40;;
53269;SDS011;39159;45.634;9.420;2023-04-06T03:15:11;12.70;;;7.05;;
53269;SDS011;39159;45.634;9.420;2023-04-06T03:17:36;15.07;;;7.53;;
53269;SDS011;39159;45.634;9.420;2023-04-06T03:20:02;11.38;;;7.10;;
53269;SDS011;39159;45.634;9.420;2023-04-06T03:22:28;19.60;;;7.68;;
53269;SDS011;39159;45.634;9.420;2023-04-06T03:24:54;15.90;;;7.40;;
53269;SDS011;39159;45.634;9.420;2023-04-06T03:27:20;11.43;;;7.63;;
53269;SDS011;39159;45.634;9.420;2023-04-06T03:29:45;11.15;;;6.97;;
53269;SDS011;39159;45.634;9.420;2023-04-06T03:32:11;10.95;;;6.45;;
53269;SDS011;39159;45.634;9.420;2023-04-06T03:34:36;12.98;;;7.20;;
53269;SDS011;39159;45.634;9.420;2023-04-06T03:37:02;11.90;;;7.03;;
53269;SDS011;39159;45.634;9.420;2023-04-06T03:39:28;13.50;;;7.10;;
53269;SDS011;39159;45.634;9.420;2023-04-06T03:41:53;10.35;;;6.57;;
53269;SDS011;39159;45.634;9.420;2023-04-06T03:44:19;14.00;;;7.70;;
53269;SDS011;39159;45.634;9.420;2023-04-06T03:46:44;14.25;;;8.10;;
53269;SDS011;39159;45.634;9.420;2023-04-06T03:49:10;18.42;;;7.53;;
53269;SDS011;39159;45.634;9.420;2023-04-06T03:51:35;11.63;;;7.63;;
53269;SDS011;39159;45.634;9.420;2023-04-06T03:54:01;14.48;;;6.45;;
53269;SDS011;39159;45.634;9.420;2023-04-06T03:56:26;13.95;;;7.60;;
53269;SDS011;39159;45.634;9.420;2023-04-06T03:58:52;12.38;;;7.28;;
53269;SDS011;39159;45.634;9.420;2023-04-06T04:01:17;13.88;;;7.60;;
53269;SDS011;39159;45.634;9.420;2023-04-06T04:03:45;14.25;;;7.45;;
53269;SDS011;39159;45.634;9.420;2023-04-06T04:06:11;11.35;;;6.95;;
53269;SDS011;39159;45.634;9.420;2023-04-06T04:08:36;12.43;;;6.57;;
53269;SDS011;39159;45.634;9.420;2023-04-06T04:11:02;12.45;;;7.22;;
53269;SDS011;39159;45.634;9.420;2023-04-06T04:13:27;11.57;;;6.70;;
53269;SDS011;39159;45.634;9.420;2023-04-06T04:15:53;12.23;;;6.85;;
53269;SDS011;39159;45.634;9.420;2023-04-06T04:18:18;12.10;;;6.80;;
53269;SDS011;39159;45.634;9.420;2023-04-06T04:20:44;13.65;;;7.43;;
53269;SDS011;39159;45.634;9.420;2023-04-06T04:23:09;18.13;;;6.88;;
53269;SDS011;39159;45.634;9.420;2023-04-06T04:25:35;14.55;;;7.35;;
53269;SDS011;39159;45.634;9.420;2023-04-06T04:28:01;12.18;;;6.60;;
53269;SDS011;39159;45.634;9.420;2023-04-06T04:30:27;10.48;;;6.40;;
53269;SDS011;39159;45.634;9.420;2023-04-06T04:32:52;16.77;;;7.75;;
53269;SDS011;39159;45.634;9.420;2023-04-06T04:35:18;12.80;;;7.65;;
53269;SDS011;39159;45.634;9.420;2023-04-06T04:37:43;13.35;;;6.88;;
53269;SDS011;39159;45.634;9.420;2023-04-06T04:40:09;13.75;;;7.30;;
53269;SDS011;39159;45.634;9.420;2023-04-06T04:42:35;14.95;;;7.38;;
53269;SDS011;39159;45.634;9.420;2023-04-06T04:45:01;13.88;;;7.75;;
53269;SDS011;39159;45.634;9.420;2023-04-06T04:47:26;13.40;;;7.63;;
53269;SDS011;39159;45.634;9.420;2023-04-06T04:49:51;14.02;;;7.85;;
53269;SDS011;39159;45.634;9.420;2023-04-06T04:52:17;16.25;;;7.88;;
53269;SDS011;39159;45.634;9.420;2023-04-06T04:54:42;20.92;;;7.93;;
53269;SDS011;39159;45.634;9.420;2023-04-06T04:57:08;15.32;;;7.47;;
53269;SDS011;39159;45.634;9.420;2023-04-06T04:59:34;18.38;;;7.53;;
53269;SDS011;39159;45.634;9.420;2023-04-06T05:02:00;15.38;;;7.20;;
53269;SDS011;39159;45.634;9.420;2023-04-06T05:04:25;16.73;;;7.55;;
53269;SDS011;39159;45.634;9.420;2023-04-06T05:07:01;13.05;;;7.55;;
53269;SDS011;39159;45.634;9.420;2023-04-06T05:09:29;11.93;;;6.97;;
53269;SDS011;39159;45.634;9.420;2023-04-06T05:11:55;12.70;;;7.50;;
53269;SDS011;39159;45.634;9.420;2023-04-06T05:14:21;18.17;;;7.68;;
53269;SDS011;39159;45.634;9.420;2023-04-06T05:16:46;12.68;;;7.28;;
53269;SDS011;39159;45.634;9.420;2023-04-06T05:19:12;12.10;;;6.93;;
53269;SDS011;39159;45.634;9.420;2023-04-06T05:21:37;14.10;;;7.47;;
53269;SDS011;39159;45.634;9.420;2023-04-06T05:24:03;15.43;;;6.57;;
53269;SDS011;39159;45.634;9.420;2023-04-06T05:26:28;17.58;;;6.93;;
53269;SDS011;39159;45.634;9.420;2023-04-06T05:28:54;14.88;;;6.95;;
53269;SDS011;39159;45.634;9.420;2023-04-06T05:31:20;13.63;;;6.82;;
53269;SDS011;39159;45.634;9.420;2023-04-06T05:33:45;11.73;;;6.28;;
53269;SDS011;39159;45.634;9.420;2023-04-06T05:36:11;12.52;;;6.53;;
53269;SDS011;39159;45.634;9.420;2023-04-06T05:38:36;11.68;;;6.43;;
53269;SDS011;39159;45.634;9.420;2023-04-06T05:41:02;14.40;;;6.43;;
53269;SDS011;39159;45.634;9.420;2023-04-06T05:43:28;14.63;;;7.57;;
53269;SDS011;39159;45.634;9.420;2023-04-06T05:45:53;17.35;;;7.05;;
53269;SDS011;39159;45.634;9.420;2023-04-06T05:48:18;15.95;;;6.18;;
53269;SDS011;39159;45.634;9.420;2023-04-06T05:50:47;10.05;;;6.13;;
53269;SDS011;39159;45.634;9.420;2023-04-06T05:53:15;12.32;;;6.95;;
53269;SDS011;39159;45.634;9.420;2023-04-06T05:55:40;7.93;;;5.55;;
53269;SDS011;39159;45.634;9.420;2023-04-06T05:58:06;17.50;;;6.15;;
53269;SDS011;39159;45.634;9.420;2023-04-06T06:00:32;11.18;;;5.40;;
53269;SDS011;39159;45.634;9.420;2023-04-06T06:02:58;13.73;;;6.45;;
53269;SDS011;39159;45.634;9.420;2023-04-06T06:05:23;12.27;;;6.68;;
53269;SDS011;39159;45.634;9.420;2023-04-06T06:07:49;10.80;;;5.82;;
53269;SDS011;39159;45.634;9.420;2023-04-06T06:10:15;12.70;;;6.47;;
53269;SDS011;39159;45.634;9.420;2023-04-06T06:12:40;11.55;;;6.45;;
53269;SDS011;39159;45.634;9.420;2023-04-06T06:15:06;14.45;;;6.22;;
53269;SDS011;39159;45.634;9.420;2023-04-06T06:17:32;14.55;;;6.43;;
53269;SDS011;39159;45.634;9.420;2023-04-06T06:19:57;10.90;;;6.40;;
53269;SDS011;39159;45.634;9.420;2023-04-06T06:22:23;9.70;;;6.00;;
53269;SDS011;39159;45.634;9.420;2023-04-06T06:24:48;14.13;;;6.80;;
53269;SDS011;39159;45.634;9.420;2023-04-06T06:27:15;12.57;;;7.22;;
53269;SDS011;39159;45.634;9.420;2023-04-06T06:29:40;14.80;;;7.15;;
53269;SDS011;39159;45.634;9.420;2023-04-06T06:32:06;14.88;;;7.25;;
53269;SDS011;39159;45.634;9.420;2023-04-06T06:34:34;12.98;;;6.88;;
53269;SDS011;39159;45.634;9.420;2023-04-06T06:36:59;10.88;;;6.55;;
53269;SDS011;39159;45.634;9.420;2023-04-06T06:39:25;12.55;;;6.57;;
53269;SDS011;39159;45.634;9.420;2023-04-06T06:41:51;14.93;;;6.78;;
53269;SDS011;39159;45.634;9.420;2023-04-06T06:44:17;12.25;;;7.18;;
53269;SDS011;39159;45.634;9.420;2023-04-06T06:46:42;10.93;;;7.35;;
53269;SDS011;39159;45.634;9.420;2023-04-06T06:49:08;12.75;;;6.65;;
53269;SDS011;39159;45.634;9.420;2023-04-06T06:51:33;10.93;;;6.35;;
53269;SDS011;39159;45.634;9.420;2023-04-06T06:53:59;12.05;;;6.72;;
53269;SDS011;39159;45.634;9.420;2023-04-06T06:56:25;15.00;;;7.20;;
53269;SDS011;39159;45.634;9.420;2023-04-06T06:58:51;9.43;;;6.72;;
53269;SDS011;39159;45.634;9.420;2023-04-06T07:01:17;10.00;;;6.47;;
53269;SDS011;39159;45.634;9.420;2023-04-06T07:03:42;13.30;;;7.47;;
53269;SDS011;39159;45.634;9.420;2023-04-06T07:06:08;11.90;;;6.88;;
53269;SDS011;39159;45.634;9.420;2023-04-06T07:08:33;13.88;;;7.63;;
53269;SDS011;39159;45.634;9.420;2023-04-06T07:10:59;12.23;;;7.05;;
53269;SDS011;39159;45.634;9.420;2023-04-06T07:13:24;11.30;;;6.40;;
53269;SDS011;39159;45.634;9.420;2023-04-06T07:15:51;17.70;;;6.85;;
53269;SDS011;39159;45.634;9.420;2023-04-06T07:18:19;12.80;;;6.43;;
53269;SDS011;39159;45.634;9.420;2023-04-06T07:20:45;10.32;;;6.35;;
53269;SDS011;39159;45.634;9.420;2023-04-06T07:23:11;13.68;;;6.38;;
53269;SDS011;39159;45.634;9.420;2023-04-06T07:25:36;11.40;;;5.63;;
53269;SDS011;39159;45.634;9.420;2023-04-06T07:28:05;7.50;;;4.05;;
53269;SDS011;39159;45.634;9.420;2023-04-06T07:30:31;13.60;;;4.65;;
53269;SDS011;39159;45.634;9.420;2023-04-06T07:32:56;6.10;;;3.42;;
53269;SDS011;39159;45.634;9.420;2023-04-06T07:35:23;5.22;;;3.22;;
53269;SDS011;39159;45.634;9.420;2023-04-06T07:37:48;5.80;;;4.20;;
53269;SDS011;39159;45.634;9.420;2023-04-06T07:40:14;6.05;;;4.40;;
53269;SDS011;39159;45.634;9.420;2023-04-06T07:42:40;5.85;;;4.05;;
53269;SDS011;39159;45.634;9.420;2023-04-06T07:45:06;6.50;;;4.40;;
53269;SDS011;39159;45.634;9.420;2023-04-06T07:47:32;6.50;;;4.60;;
53269;SDS011;39159;45.634;9.420;2023-04-06T07:49:58;10.23;;;5.25;;
53269;SDS011;39159;45.634;9.420;2023-04-06T07:52:23;10.55;;;4.97;;
53269;SDS011;39159;45.634;9.420;2023-04-06T07:54:49;7.68;;;4.55;;
53269;SDS011;39159;45.634;9.420;2023-04-06T07:57:14;11.52;;;4.72;;
53269;SDS011;39159;45.634;9.420;2023-04-06T07:59:40;9.48;;;4.40;;
53269;SDS011;39159;45.634;9.420;2023-04-06T08:02:06;6.43;;;4.50;;
53269;SDS011;39159;45.634;9.420;2023-04-06T08:04:31;6.38;;;4.15;;
53269;SDS011;39159;45.634;9.420;2023-04-06T08:06:57;7.07;;;4.03;;
53269;SDS011;39159;45.634;9.420;2023-04-06T08:09:22;8.70;;;4.45;;
53269;SDS011;39159;45.634;9.420;2023-04-06T08:11:48;5.78;;;4.07;;
53269;SDS011;39159;45.634;9.420;2023-04-06T08:14:14;7.55;;;4.05;;
53269;SDS011;39159;45.634;9.420;2023-04-06T08:16:40;5.40;;;3.55;;
53269;SDS011;39159;45.634;9.420;2023-04-06T08:19:06;6.90;;;3.90;;
53269;SDS011;39159;45.634;9.420;2023-04-06T08:21:34;8.25;;;3.83;;
53269;SDS011;39159;45.634;9.420;2023-04-06T08:24:00;7.05;;;4.05;;
53269;SDS011;39159;45.634;9.420;2023-04-06T08:26:26;6.65;;;4.20;;
53269;SDS011;39159;45.634;9.420;2023-04-06T08:28:53;9.38;;;4.25;;
53269;SDS011;39159;45.634;9.420;2023-04-06T08:31:19;7.30;;;3.97;;
53269;SDS011;39159;45.634;9.420;2023-04-06T08:33:45;20.58;;;5.13;;
53269;SDS011;39159;45.634;9.420;2023-04-06T08:36:13;7.70;;;3.70;;
53269;SDS011;39159;45.634;9.420;2023-04-06T08:38:40;5.47;;;3.97;;
53269;SDS011;39159;45.634;9.420;2023-04-06T08:41:07;44.67;;;4.88;;
53269;SDS011;39159;45.634;9.420;2023-04-06T08:43:34;8.27;;;4.07;;
53269;SDS011;39159;45.634;9.420;2023-04-06T08:46:07;6.93;;;4.38;;
53269;SDS011;39159;45.634;9.420;2023-04-06T08:48:33;6.22;;;4.60;;
53269;SDS011;39159;45.634;9.420;2023-04-06T08:50:59;5.93;;;3.88;;
53269;SDS011;39159;45.634;9.420;2023-04-06T08:53:26;4.85;;;3.78;;
53269;SDS011;39159;45.634;9.420;2023-04-06T08:55:52;7.30;;;4.30;;
53269;SDS011;39159;45.634;9.420;2023-04-06T08:58:18;8.65;;;4.20;;
53269;SDS011;39159;45.634;9.420;2023-04-06T09:00:46;7.85;;;4.25;;
53269;SDS011;39159;45.634;9.420;2023-04-06T09:03:12;7.85;;;4.43;;
53269;SDS011;39159;45.634;9.420;2023-04-06T09:05:38;9.13;;;4.13;;
53269;SDS011;39159;45.634;9.420;2023-04-06T09:08:04;9.27;;;4.72;;
53269;SDS011;39159;45.634;9.420;2023-04-06T09:10:30;8.18;;;5.05;;
53269;SDS011;39159;45.634;9.420;2023-04-06T09:13:04;7.47;;;4.47;;
53269;SDS011;39159;45.634;9.420;2023-04-06T09:15:30;11.23;;;4.70;;
53269;SDS011;39159;45.634;9.420;2023-04-06T09:17:56;7.53;;;4.40;;
53269;SDS011;39159;45.634;9.420;2023-04-06T09:20:23;9.40;;;4.85;;
53269;SDS011;39159;45.634;9.420;2023-04-06T09:22:51;7.80;;;4.80;;
53269;SDS011;39159;45.634;9.420;2023-04-06T09:25:23;6.68;;;4.68;;
53269;SDS011;39159;45.634;9.420;2023-04-06T09:28:01;9.07;;;5.13;;
53269;SDS011;39159;45.634;9.420;2023-04-06T09:30:28;8.88;;;4.85;;
53269;SDS011;39159;45.634;9.420;2023-04-06T09:32:55;7.25;;;5.13;;
53269;SDS011;39159;45.634;9.420;2023-04-06T09:35:21;6.60;;;5.00;;
53269;SDS011;39159;45.634;9.420;2023-04-06T09:37:51;7.45;;;5.10;;
53269;SDS011;39159;45.634;9.420;2023-04-06T09:40:17;8.05;;;5.38;;
53269;SDS011;39159;45.634;9.420;2023-04-06T09:42:47;8.02;;;5.40;;
53269;SDS011;39159;45.634;9.420;2023-04-06T09:45:18;10.60;;;5.40;;
53269;SDS011;39159;45.634;9.420;2023-04-06T09:47:44;9.57;;;5.57;;
53269;SDS011;39159;45.634;9.420;2023-04-06T09:50:11;7.88;;;5.28;;
53269;SDS011;39159;45.634;9.420;2023-04-06T09:52:42;9.05;;;5.47;;
53269;SDS011;39159;45.634;9.420;2023-04-06T09:55:17;7.05;;;5.32;;
53269;SDS011;39159;45.634;9.420;2023-04-06T09:58:05;7.95;;;6.18;;
53269;SDS011;39159;45.634;9.420;2023-04-06T10:00:40;8.07;;;5.32;;
53269;SDS011;39159;45.634;9.420;2023-04-06T10:03:14;9.95;;;5.78;;
53269;SDS011;39159;45.634;9.420;2023-04-06T10:05:46;8.20;;;6.07;;
53269;SDS011;39159;45.634;9.420;2023-04-06T10:08:15;11.30;;;5.65;;
53269;SDS011;39159;45.634;9.420;2023-04-06T10:10:41;11.55;;;6.45;;
53269;SDS011;39159;45.634;9.420;2023-04-06T10:13:09;12.88;;;6.07;;
53269;SDS011;39159;45.634;9.420;2023-04-06T10:15:35;11.00;;;6.18;;
53269;SDS011;39159;45.634;9.420;2023-04-06T10:18:03;14.48;;;7.22;;
53269;SDS011;39159;45.634;9.420;2023-04-06T10:20:31;10.40;;;6.47;;
53269;SDS011;39159;45.634;9.420;2023-04-06T10:23:12;8.52;;;5.55;;
53269;SDS011;39159;45.634;9.420;2023-04-06T10:25:54;11.95;;;6.78;;
53269;SDS011;39159;45.634;9.420;2023-04-06T10:28:20;11.35;;;6.90;;
53269;SDS011;39159;45.634;9.420;2023-04-06T10:30:46;9.23;;;5.97;;
53269;SDS011;39159;45.634;9.420;2023-04-06T10:33:15;8.23;;;6.13;;
53269;SDS011;39159;45.634;9.420;2023-04-06T10:35:43;15.80;;;8.07;;
53269;SDS011;39159;45.634;9.420;2023-04-06T10:38:08;12.45;;;7.32;;
53269;SDS011;39159;45.634;9.420;2023-04-06T10:40:37;11.48;;;7.25;;
53269;SDS011;39159;45.634;9.420;2023-04-06T10:43:10;12.85;;;7.10;;
53269;SDS011;39159;45.634;9.420;2023-04-06T10:45:37;11.38;;;8.13;;
53269;SDS011;39159;45.634;9.420;2023-04-06T10:48:13;11.15;;;7.10;;
53269;SDS011;39159;45.634;9.420;2023-04-06T10:50:41;10.88;;;7.20;;
53269;SDS011;39159;45.634;9.420;2023-04-06T10:53:07;10.68;;;7.00;;
53269;SDS011;39159;45.634;9.420;2023-04-06T10:55:32;14.00;;;7.85;;
53269;SDS011;39159;45.634;9.420;2023-04-06T10:57:59;13.32;;;7.68;;
53269;SDS011;39159;45.634;9.420;2023-04-06T11:00:25;13.13;;;8.10;;
53269;SDS011;39159;45.634;9.420;2023-04-06T11:02:51;13.00;;;7.18;;
53269;SDS011;39159;45.634;9.420;2023-04-06T11:05:17;10.27;;;8.00;;
53269;SDS011;39159;45.634;9.420;2023-04-06T11:07:43;26.38;;;8.48;;
53269;SDS011;39159;45.634;9.420;2023-04-06T11:10:09;13.88;;;8.40;;
53269;SDS011;39159;45.634;9.420;2023-04-06T11:12:35;14.00;;;8.05;;
53269;SDS011;39159;45.634;9.420;2023-04-06T11:15:01;14.30;;;8.70;;
53269;SDS011;39159;45.634;9.420;2023-04-06T11:17:34;12.38;;;8.25;;
53269;SDS011;39159;45.634;9.420;2023-04-06T11:20:01;10.82;;;7.80;;
53269;SDS011;39159;45.634;9.420;2023-04-06T11:22:28;14.82;;;8.00;;
53269;SDS011;39159;45.634;9.420;2023-04-06T11:25:04;14.85;;;8.68;;
53269;SDS011;39159;45.634;9.420;2023-04-06T11:27:31;14.60;;;8.45;;
53269;SDS011;39159;45.634;9.420;2023-04-06T11:29:59;18.52;;;8.73;;
53269;SDS011;39159;45.634;9.420;2023-04-06T11:32:25;13.75;;;8.60;;
53269;SDS011;39159;45.634;9.420;2023-04-06T11:34:50;14.77;;;9.15;;
53269;SDS011;39159;45.634;9.420;2023-04-06T11:37:16;12.15;;;8.50;;
53269;SDS011;39159;45.634;9.420;2023-04-06T11:39:48;14.90;;;8.98;;
53269;SDS011;39159;45.634;9.420;2023-04-06T11:42:22;13.00;;;8.60;;
53269;SDS011;39159;45.634;9.420;2023-04-06T11:44:55;15.45;;;8.27;;
53269;SDS011;39159;45.634;9.420;2023-04-06T11:50:24;13.25;;;9.02;;
53269;SDS011;39159;45.634;9.420;2023-04-06T11:52:58;17.88;;;9.05;;
53269;SDS011;39159;45.634;9.420;2023-04-06T11:55:28;14.10;;;8.52;;
53269;SDS011;39159;45.634;9.420;2023-04-06T11:57:53;14.93;;;9.68;;
53269;SDS011;39159;45.634;9.420;2023-04-06T12:00:20;14.38;;;9.00;;
53269;SDS011;39159;45.634;9.420;2023-04-06T12:02:47;22.55;;;8.98;;
53269;SDS011;39159;45.634;9.420;2023-04-06T12:05:13;15.23;;;9.05;;
53269;SDS011;39159;45.634;9.420;2023-04-06T12:07:38;13.52;;;9.15;;
53269;SDS011;39159;45.634;9.420;2023-04-06T12:10:04;15.70;;;10.10;;
53269;SDS011;39159;45.634;9.420;2023-04-06T12:12:30;14.05;;;8.93;;
53269;SDS011;39159;45.634;9.420;2023-04-06T12:14:56;15.25;;;9.48;;
53269;SDS011;39159;45.634;9.420;2023-04-06T12:17:22;23.65;;;9.90;;
53269;SDS011;39159;45.634;9.420;2023-04-06T12:19:48;14.32;;;8.82;;
53269;SDS011;39159;45.634;9.420;2023-04-06T12:22:13;14.35;;;9.43;;
53269;SDS011;39159;45.634;9.420;2023-04-06T12:24:39;17.23;;;9.63;;
53269;SDS011;39159;45.634;9.420;2023-04-06T12:27:04;13.75;;;9.23;;
53269;SDS011;39159;45.634;9.420;2023-04-06T12:29:30;13.95;;;9.63;;
53269;SDS011;39159;45.634;9.420;2023-04-06T12:31:56;15.02;;;9.05;;
53269;SDS011;39159;45.634;9.420;2023-04-06T12:34:21;16.20;;;10.02;;
53269;SDS011;39159;45.634;9.420;2023-04-06T12:36:47;14.68;;;8.98;;
53269;SDS011;39159;45.634;9.420;2023-04-06T12:39:12;14.35;;;9.18;;
53269;SDS011;39159;45.634;9.420;2023-04-06T12:41:37;15.45;;;9.77;;
53269;SDS011;39159;45.634;9.420;2023-04-06T12:44:06;13.80;;;9.50;;
53269;SDS011;39159;45.634;9.420;2023-04-06T12:46:31;11.52;;;8.93;;
53269;SDS011;39159;45.634;9.420;2023-04-06T12:48:57;15.98;;;9.38;;
53269;SDS011;39159;45.634;9.420;2023-04-06T12:51:24;13.93;;;8.95;;
53269;SDS011;39159;45.634;9.420;2023-04-06T12:53:52;13.27;;;9.05;;
53269;SDS011;39159;45.634;9.420;2023-04-06T12:56:18;13.00;;;8.90;;
53269;SDS011;39159;45.634;9.420;2023-04-06T12:58:44;15.05;;;8.45;;
53269;SDS011;39159;45.634;9.420;2023-04-06T13:01:10;15.10;;;8.65;;
53269;SDS011;39159;45.634;9.420;2023-04-06T13:03:39;12.52;;;8.27;;
53269;SDS011;39159;45.634;9.420;2023-04-06T13:06:06;12.07;;;8.68;;
53269;SDS011;39159;45.634;9.420;2023-04-06T13:08:33;16.77;;;9.55;;
53269;SDS011;39159;45.634;9.420;2023-04-06T13:11:00;11.50;;;8.68;;
53269;SDS011;39159;45.634;9.420;2023-04-06T13:13:26;13.23;;;8.93;;
53269;SDS011;39159;45.634;9.420;2023-04-06T13:15:53;23.83;;;9.32;;
53269;SDS011;39159;45.634;9.420;2023-04-06T13:18:20;15.02;;;8.90;;
53269;SDS011;39159;45.634;9.420;2023-04-06T13:20:46;23.60;;;9.23;;
53269;SDS011;39159;45.634;9.420;2023-04-06T13:23:12;12.68;;;9.05;;
53269;SDS011;39159;45.634;9.420;2023-04-06T13:25:38;18.88;;;8.82;;
53269;SDS011;39159;45.634;9.420;2023-04-06T13:28:03;16.60;;;9.40;;
53269;SDS011;39159;45.634;9.420;2023-04-06T13:30:29;15.95;;;10.13;;
53269;SDS011;39159;45.634;9.420;2023-04-06T13:32:55;15.13;;;9.55;;
53269;SDS011;39159;45.634;9.420;2023-04-06T13:35:21;13.20;;;8.77;;
53269;SDS011;39159;45.634;9.420;2023-04-06T13:37:46;12.30;;;9.32;;
53269;SDS011;39159;45.634;9.420;2023-04-06T13:40:13;19.10;;;10.65;;
53269;SDS011;39159;45.634;9.420;2023-04-06T13:42:38;16.30;;;10.32;;
53269;SDS011;39159;45.634;9.420;2023-04-06T13:45:06;15.27;;;9.35;;
53269;SDS011;39159;45.634;9.420;2023-04-06T13:47:32;18.38;;;10.75;;
53269;SDS011;39159;45.634;9.420;2023-04-06T13:49:57;18.25;;;10.63;;
53269;SDS011;39159;45.634;9.420;2023-04-06T13:52:23;18.63;;;9.50;;
53269;SDS011;39159;45.634;9.420;2023-04-06T13:54:49;18.35;;;9.65;;
53269;SDS011;39159;45.634;9.420;2023-04-06T13:57:15;16.23;;;10.05;;
53269;SDS011;39159;45.634;9.420;2023-04-06T13:59:41;13.25;;;9.18;;
53269;SDS011;39159;45.634;9.420;2023-04-06T14:02:07;17.25;;;10.05;;
53269;SDS011;39159;45.634;9.420;2023-04-06T14:04:33;18.02;;;10.15;;
53269;SDS011;39159;45.634;9.420;2023-04-06T14:07:00;16.80;;;9.70;;
53269;SDS011;39159;45.634;9.420;2023-04-06T14:09:26;16.90;;;10.38;;
53269;SDS011;39159;45.634;9.420;2023-04-06T14:11:52;18.25;;;10.15;;
53269;SDS011;39159;45.634;9.420;2023-04-06T14:14:18;18.02;;;10.57;;
53269;SDS011;39159;45.634;9.420;2023-04-06T14:16:44;25.13;;;10.32;;
53269;SDS011;39159;45.634;9.420;2023-04-06T14:19:15;16.63;;;9.68;;
53269;SDS011;39159;45.634;9.420;2023-04-06T14:21:42;19.85;;;10.30;;
53269;SDS011;39159;45.634;9.420;2023-04-06T14:24:09;14.63;;;9.57;;
53269;SDS011;39159;45.634;9.420;2023-04-06T14:26:35;16.27;;;9.40;;
53269;SDS011;39159;45.634;9.420;2023-04-06T14:29:02;16.42;;;10.68;;
53269;SDS011;39159;45.634;9.420;2023-04-06T14:31:29;15.43;;;10.25;;
53269;SDS011;39159;45.634;9.420;2023-04-06T14:33:55;16.85;;;10.32;;